createdAt,value
2023-09-29T00:00:21.002Z,25.48
2023-09-29T00:05:23.346Z,24.05
2023-09-29T00:10:25.200Z,26.27
2023-09-29T00:15:26.833Z,24.40
2023-09-29T00:20:28.415Z,22.52
2023-09-29T00:25:29.991Z,23.05
2023-09-29T00:30:31.520Z,20.80
2023-09-29T00:35:34.600Z,16.95
2023-09-29T00:40:36.639Z,21.60
2023-09-29T00:45:38.707Z,19.10
2023-09-29T00:50:40.752Z,21.38
2023-09-29T00:55:43.575Z,20.98
2023-09-29T01:00:46.718Z,16.33
2023-09-29T01:05:49.471Z,18.48
2023-09-29T01:10:51.490Z,15.50
2023-09-29T01:15:55.522Z,14.82
2023-09-29T01:20:57.225Z,18.70
2023-09-29T01:25:58.931Z,16.10
2023-09-29T01:31:00.533Z,16.25
2023-09-29T01:36:02.186Z,13.75
2023-09-29T01:41:03.756Z,15.68
2023-09-29T01:46:05.608Z,15.13
2023-09-29T01:51:07.829Z,13.98
2023-09-29T01:56:09.443Z,15.32
2023-09-29T02:01:11.530Z,15.68
2023-09-29T02:06:15.218Z,13.02
2023-09-29T02:11:16.968Z,14.55
2023-09-29T02:16:18.558Z,17.95
2023-09-29T02:21:22.809Z,16.98
2023-09-29T02:26:24.548Z,17.95
2023-09-29T02:31:27.999Z,16.65
2023-09-29T02:36:29.855Z,16.70
2023-09-29T02:41:31.557Z,15.50
2023-09-29T02:46:33.240Z,18.55
2023-09-29T02:51:34.886Z,20.45
2023-09-29T02:56:36.501Z,17.02
2023-09-29T03:01:38.426Z,17.20
2023-09-29T03:06:40.004Z,18.98
2023-09-29T03:11:41.725Z,16.85
2023-09-29T03:16:43.679Z,15.07
2023-09-29T03:21:45.484Z,19.85
2023-09-29T03:26:50.419Z,16.33
2023-09-29T03:31:54.805Z,16.02
2023-09-29T03:36:56.506Z,16.08
2023-09-29T03:41:58.172Z,18.52
2023-09-29T03:46:59.768Z,14.50
2023-09-29T03:52:01.325Z,15.98
2023-09-29T03:57:04.987Z,17.45
2023-09-29T04:02:06.824Z,15.75
2023-09-29T04:07:08.407Z,19.25
2023-09-29T04:12:11.524Z,15.45
2023-09-29T04:17:14.352Z,19.20
2023-09-29T04:22:15.921Z,20.77
2023-09-29T04:27:17.449Z,20.60
2023-09-29T04:32:19.252Z,21.13
2023-09-29T04:37:20.867Z,16.95
2023-09-29T04:42:22.584Z,15.30
2023-09-29T04:47:24.252Z,20.05
2023-09-29T04:52:29.063Z,17.75
2023-09-29T04:57:30.697Z,17.35
2023-09-29T05:02:32.648Z,15.55
2023-09-29T05:07:35.691Z,21.77
2023-09-29T05:12:37.460Z,19.83
2023-09-29T05:17:50.547Z,16.27
2023-09-29T05:22:53.224Z,18.67
2023-09-29T05:27:54.870Z,16.98
2023-09-29T05:32:56.445Z,18.02
2023-09-29T05:37:58.314Z,19.70
2023-09-29T05:43:00.024Z,15.93
2023-09-29T05:48:01.719Z,16.52
2023-09-29T05:53:10.484Z,17.63
2023-09-29T05:58:13.063Z,14.90
2023-09-29T06:03:15.060Z,16.30
2023-09-29T06:08:16.715Z,17.13
2023-09-29T06:13:18.313Z,14.50
2023-09-29T06:18:20.018Z,13.57
2023-09-29T06:23:21.656Z,17.33
2023-09-29T06:28:23.180Z,19.77
2023-09-29T06:33:25.669Z,16.25
2023-09-29T06:38:27.430Z,12.38
2023-09-29T06:43:29.009Z,14.93
2023-09-29T06:48:30.784Z,14.65
2023-09-29T06:53:32.899Z,15.90
2023-09-29T06:58:35.437Z,14.52
2023-09-29T07:03:37.252Z,12.48
2023-09-29T07:08:39.117Z,12.10
2023-09-29T07:13:40.908Z,12.73
2023-09-29T07:18:42.682Z,13.70
2023-09-29T07:23:44.362Z,16.42
2023-09-29T07:28:46.175Z,13.63
2023-09-29T07:33:47.822Z,13.93
2023-09-29T07:38:49.605Z,11.18
2023-09-29T07:43:51.329Z,12.07
2023-09-29T07:48:52.979Z,15.52
2023-09-29T07:53:54.731Z,12.32
2023-09-29T07:58:56.584Z,8.30
2023-09-29T08:03:58.748Z,17.23
2023-09-29T08:09:01.709Z,11.70
2023-09-29T08:14:03.414Z,13.80
2023-09-29T08:19:06.267Z,9.57
2023-09-29T08:24:08.167Z,10.43
2023-09-29T08:29:17.105Z,10.85
2023-09-29T08:34:19.282Z,8.68
2023-09-29T08:39:21.462Z,14.85
2023-09-29T08:44:26.494Z,10.13
2023-09-29T08:49:35.880Z,9.45
2023-09-29T08:54:41.631Z,7.40
2023-09-29T08:59:44.631Z,9.63
2023-09-29T09:04:46.408Z,9.77
2023-09-29T09:09:52.062Z,9.30
2023-09-29T09:14:53.690Z,14.10
2023-09-29T09:19:55.507Z,5.90
2023-09-29T09:25:00.419Z,6.97
2023-09-29T09:30:02.103Z,9.90
2023-09-29T09:35:03.967Z,6.65
2023-09-29T09:40:06.668Z,6.97
2023-09-29T09:45:08.397Z,3.38
2023-09-29T09:50:15.330Z,6.78
2023-09-29T09:55:17.869Z,5.60
2023-09-29T10:00:20.913Z,8.77
2023-09-29T10:05:31.961Z,9.30
2023-09-29T10:10:35.275Z,12.43
2023-09-29T10:15:36.894Z,3.92
2023-09-29T10:20:38.479Z,4.93
2023-09-29T10:25:40.433Z,6.47
2023-09-29T10:30:42.038Z,6.10
2023-09-29T10:35:47.598Z,6.53
2023-09-29T10:40:49.617Z,4.80
2023-09-29T10:45:54.626Z,4.97
2023-09-29T10:50:56.251Z,5.47
2023-09-29T10:55:59.665Z,9.05
2023-09-29T11:01:01.381Z,6.30
2023-09-29T11:06:10.300Z,3.20
2023-09-29T11:11:12.107Z,11.00
2023-09-29T11:16:18.357Z,6.72
2023-09-29T11:21:21.182Z,6.60
2023-09-29T11:26:24.790Z,3.13
2023-09-29T11:31:26.575Z,7.45
2023-09-29T11:36:30.768Z,11.80
2023-09-29T11:41:32.409Z,7.20
2023-09-29T11:46:34.131Z,7.53
2023-09-29T11:51:38.521Z,8.38
2023-09-29T11:56:40.453Z,8.05
2023-09-29T12:01:42.253Z,5.38
2023-09-29T12:06:43.907Z,6.43
2023-09-29T12:11:45.612Z,8.00
2023-09-29T12:16:47.273Z,8.77
2023-09-29T12:21:49.035Z,6.25
2023-09-29T12:26:50.563Z,3.75
2023-09-29T12:31:52.334Z,5.13
2023-09-29T12:36:54.030Z,8.88
2023-09-29T12:41:56.361Z,9.52
2023-09-29T12:46:57.964Z,5.88
2023-09-29T12:52:02.095Z,10.27
2023-09-29T12:57:05.725Z,7.13
2023-09-29T13:02:08.706Z,7.07
2023-09-29T13:07:13.242Z,10.82
2023-09-29T13:12:30.180Z,6.97
2023-09-29T13:17:33.642Z,13.55
2023-09-29T13:22:35.169Z,6.40
2023-09-29T13:27:36.955Z,4.20
2023-09-29T13:32:38.593Z,8.30
2023-09-29T13:37:41.076Z,8.57
2023-09-29T13:42:42.676Z,9.95
2023-09-29T13:47:45.169Z,17.08
2023-09-29T13:52:47.068Z,9.80
2023-09-29T13:57:49.023Z,9.32
2023-09-29T14:02:51.261Z,9.50
2023-09-29T14:07:55.037Z,8.15
2023-09-29T14:12:56.713Z,7.78
2023-09-29T14:17:58.366Z,9.25
2023-09-29T14:22:59.966Z,8.18
2023-09-29T14:28:01.725Z,11.73
2023-09-29T14:33:05.845Z,8.85
2023-09-29T14:38:07.604Z,7.45
2023-09-29T14:43:09.279Z,4.45
2023-09-29T14:48:11.509Z,5.35
2023-09-29T14:53:13.207Z,5.07
2023-09-29T14:58:15.279Z,11.85
2023-09-29T15:03:16.993Z,14.55
2023-09-29T15:08:19.478Z,8.02
2023-09-29T15:13:20.999Z,4.90
2023-09-29T15:18:23.461Z,8.95
2023-09-29T15:23:25.057Z,6.65
2023-09-29T15:28:26.698Z,7.85
2023-09-29T15:33:28.400Z,8.82
2023-09-29T15:38:30.067Z,8.90
2023-09-29T15:43:32.430Z,9.57
2023-09-29T15:48:36.278Z,8.40
2023-09-29T15:53:38.690Z,9.65
2023-09-29T15:58:42.327Z,9.13
2023-09-29T16:03:45.495Z,5.78
2023-09-29T16:08:48.456Z,8.10
2023-09-29T16:13:50.731Z,15.13
2023-09-29T16:18:52.686Z,8.98
2023-09-29T16:23:54.369Z,7.85
2023-09-29T16:28:56.016Z,9.43
2023-09-29T16:33:58.387Z,7.57
2023-09-29T16:39:00.275Z,10.85
2023-09-29T16:44:01.961Z,10.52
2023-09-29T16:49:03.772Z,12.85
2023-09-29T16:54:05.327Z,12.02
2023-09-29T16:59:06.991Z,8.10
2023-09-29T17:04:09.772Z,9.63
2023-09-29T17:09:13.017Z,11.77
2023-09-29T17:14:16.609Z,8.65
2023-09-29T17:19:18.199Z,4.80
2023-09-29T17:24:19.798Z,13.05
2023-09-29T17:29:21.968Z,9.48
2023-09-29T17:34:23.588Z,8.70
2023-09-29T17:39:25.156Z,8.95
2023-09-29T17:44:26.735Z,7.82
2023-09-29T17:49:28.302Z,7.35
2023-09-29T17:54:30.025Z,11.95
2023-09-29T17:59:32.810Z,10.38
2023-09-29T18:04:34.427Z,7.82
2023-09-29T18:09:37.471Z,11.65
2023-09-29T18:14:39.029Z,9.63
2023-09-29T18:19:40.798Z,9.20
2023-09-29T18:24:43.089Z,10.05
2023-09-29T18:29:44.870Z,6.20
2023-09-29T18:34:46.576Z,9.18
2023-09-29T18:39:48.134Z,11.90
2023-09-29T18:44:49.674Z,8.65
2023-09-29T18:49:51.231Z,14.82
2023-09-29T18:54:52.777Z,10.90
2023-09-29T18:59:56.277Z,7.45
2023-09-29T19:04:57.853Z,14.07
2023-09-29T19:09:59.575Z,13.43
2023-09-29T19:15:01.226Z,9.20
2023-09-29T19:20:03.805Z,9.55
2023-09-29T19:25:05.521Z,12.90
2023-09-29T19:30:07.404Z,7.68
2023-09-29T19:35:09.019Z,9.05
2023-09-29T19:40:11.403Z,15.95
2023-09-29T19:45:14.018Z,16.48
2023-09-29T19:50:15.805Z,14.18
2023-09-29T19:55:17.386Z,8.93
2023-09-29T20:00:19.319Z,13.55
2023-09-29T20:05:21.101Z,10.88
2023-09-29T20:10:22.660Z,12.13
2023-09-29T20:15:24.209Z,10.88
2023-09-29T20:20:25.794Z,19.17
2023-09-29T20:25:27.384Z,12.13
2023-09-29T20:30:28.956Z,15.75
2023-09-29T20:35:31.500Z,11.63
2023-09-29T20:40:33.332Z,6.80
2023-09-29T20:45:34.918Z,14.32
2023-09-29T20:50:36.801Z,14.63
2023-09-29T20:55:38.380Z,9.82
2023-09-29T21:00:40.318Z,8.15
2023-09-29T21:05:41.917Z,9.85
2023-09-29T21:10:43.420Z,9.23
2023-09-29T21:15:45.000Z,9.30
2023-09-29T21:20:46.679Z,10.20
2023-09-29T21:25:49.957Z,9.50
2023-09-29T21:30:51.808Z,9.43
2023-09-29T21:35:53.328Z,6.30
2023-09-29T21:40:54.834Z,14.10
2023-09-29T21:45:56.347Z,17.60
2023-09-29T21:50:58.293Z,8.25
2023-09-29T21:56:01.743Z,10.80
2023-09-29T22:01:03.727Z,12.63
2023-09-29T22:06:05.968Z,5.38
2023-09-29T22:11:07.564Z,11.07
2023-09-29T22:16:09.770Z,12.25
2023-09-29T22:21:11.420Z,14.00
2023-09-29T22:26:29.157Z,10.70
2023-09-29T22:31:31.056Z,11.10
2023-09-29T22:36:32.595Z,8.63
2023-09-29T22:41:34.222Z,6.78
2023-09-29T22:46:35.833Z,7.72
2023-09-29T22:51:37.422Z,13.32
2023-09-29T22:56:39.174Z,18.83
2023-09-29T23:01:40.893Z,10.07
2023-09-29T23:06:42.516Z,9.82
2023-09-29T23:11:44.276Z,13.85
2023-09-29T23:16:45.844Z,8.63
2023-09-29T23:21:47.424Z,9.27
2023-09-29T23:26:51.875Z,8.23
2023-09-29T23:31:53.390Z,11.52
2023-09-29T23:36:54.920Z,15.32
2023-09-29T23:41:56.428Z,9.50
2023-09-29T23:47:00.034Z,9.43
2023-09-29T23:52:01.712Z,11.13
2023-09-29T23:57:04.740Z,8.73
